createdAt,value
2017-05-06T00:02:18.818Z,20.00
2017-05-06T00:04:49.702Z,19.92
2017-05-06T00:07:20.502Z,21.28
2017-05-06T00:09:52.284Z,19.92
2017-05-06T00:12:24.032Z,20.08
2017-05-06T00:14:55.852Z,19.36
2017-05-06T00:17:26.720Z,19.60
2017-05-06T00:19:57.500Z,18.66
2017-05-06T00:22:28.419Z,20.88
2017-05-06T00:24:59.207Z,20.22
2017-05-06T00:27:30.252Z,21.28
2017-05-06T00:30:01.267Z,19.62
2017-05-06T00:32:32.172Z,19.94
2017-05-06T00:35:03.822Z,19.46
2017-05-06T00:37:35.582Z,19.78
2017-05-06T00:40:06.415Z,20.64
2017-05-06T00:42:37.284Z,23.00
2017-05-06T00:45:08.092Z,21.00
2017-05-06T00:47:38.980Z,20.28
2017-05-06T00:50:09.760Z,18.86
2017-05-06T00:52:40.779Z,21.22
2017-05-06T00:55:11.564Z,19.96
2017-05-06T00:57:42.462Z,20.26
2017-05-06T01:00:13.348Z,21.56
2017-05-06T01:02:44.201Z,22.46
2017-05-06T01:05:15.096Z,20.44
2017-05-06T01:07:45.913Z,20.36
2017-05-06T01:10:17.663Z,21.50
2017-05-06T01:12:49.434Z,21.94
2017-05-06T01:15:20.213Z,21.22
2017-05-06T01:17:51.187Z,19.36
2017-05-06T01:20:22.475Z,19.78
2017-05-06T01:22:53.362Z,20.78
2017-05-06T01:25:24.235Z,20.28
2017-05-06T01:27:55.118Z,19.38
2017-05-06T01:30:25.564Z,21.90
2017-05-06T01:32:56.433Z,20.76
2017-05-06T01:35:27.213Z,20.20
2017-05-06T01:37:58.068Z,20.96
2017-05-06T01:40:28.851Z,19.42
2017-05-06T01:42:59.679Z,21.74
2017-05-06T01:45:30.520Z,21.28
2017-05-06T01:48:01.296Z,20.46
2017-05-06T01:50:32.187Z,19.64
2017-05-06T01:53:03.067Z,20.80
2017-05-06T01:55:33.923Z,19.70
2017-05-06T01:58:04.737Z,20.86
2017-05-06T02:00:35.646Z,20.70
2017-05-06T02:03:06.435Z,23.56
2017-05-06T02:05:37.369Z,21.68
2017-05-06T02:08:08.146Z,21.94
2017-05-06T02:10:38.979Z,23.34
2017-05-06T02:13:10.682Z,23.58
2017-05-06T02:15:41.551Z,20.96
2017-05-06T02:18:12.341Z,20.50
2017-05-06T02:20:43.168Z,23.40
2017-05-06T02:23:14.628Z,20.94
2017-05-06T02:25:45.506Z,22.28
2017-05-06T02:28:16.376Z,21.48
2017-05-06T02:30:47.207Z,23.02
2017-05-06T02:33:18.031Z,23.22
2017-05-06T02:35:48.872Z,22.22
2017-05-06T02:38:19.652Z,23.08
2017-05-06T02:40:50.520Z,22.26
2017-05-06T02:43:21.427Z,22.88
2017-05-06T02:45:52.346Z,21.26
2017-05-06T02:48:24.271Z,21.88
2017-05-06T02:50:55.111Z,21.74
2017-05-06T02:53:26.014Z,22.08
2017-05-06T02:55:56.848Z,19.72
2017-05-06T02:58:27.639Z,21.84
2017-05-06T03:00:58.462Z,24.38
2017-05-06T03:03:29.263Z,22.34
2017-05-06T03:06:00.127Z,23.36
2017-05-06T03:08:30.903Z,22.82
2017-05-06T03:11:01.764Z,22.22
2017-05-06T03:13:32.690Z,22.68
2017-05-06T03:16:03.525Z,24.26
2017-05-06T03:18:34.648Z,24.98
2017-05-06T03:21:05.592Z,24.64
2017-05-06T03:23:36.379Z,23.40
2017-05-06T03:26:07.216Z,24.74
2017-05-06T03:28:38.050Z,25.08
2017-05-06T03:31:08.892Z,22.78
2017-05-06T03:33:39.659Z,24.76
2017-05-06T03:36:10.499Z,26.22
2017-05-06T03:38:41.284Z,26.78
2017-05-06T03:41:12.118Z,26.90
2017-05-06T03:43:43.022Z,27.36
2017-05-06T03:46:13.871Z,26.06
2017-05-06T03:48:44.653Z,28.96
2017-05-06T03:51:15.529Z,26.32
2017-05-06T03:53:46.386Z,27.64
2017-05-06T03:56:17.256Z,24.90
2017-05-06T03:58:48.036Z,25.48
2017-05-06T04:01:18.888Z,27.86
2017-05-06T04:03:49.817Z,25.82
2017-05-06T04:06:20.683Z,26.08
2017-05-06T04:08:51.593Z,25.88
2017-05-06T04:11:22.427Z,26.92
2017-05-06T04:13:53.327Z,26.34
2017-05-06T04:16:23.983Z,26.50
2017-05-06T04:18:54.840Z,27.24
2017-05-06T04:21:25.823Z,25.74
2017-05-06T04:23:56.659Z,27.30
2017-05-06T04:26:27.446Z,30.42
2017-05-06T04:28:58.279Z,29.40
2017-05-06T04:31:29.135Z,27.88
2017-05-06T04:33:59.920Z,31.08
2017-05-06T04:36:30.792Z,31.32
2017-05-06T04:39:01.902Z,30.92
2017-05-06T04:41:32.778Z,31.48
2017-05-06T04:44:05.914Z,30.54
2017-05-06T04:46:36.755Z,30.74
2017-05-06T04:49:07.542Z,33.88
2017-05-06T04:51:38.364Z,32.02
2017-05-06T04:54:09.279Z,30.06
2017-05-06T04:56:40.114Z,30.18
2017-05-06T04:59:10.949Z,29.18
2017-05-06T05:01:42.341Z,30.36
2017-05-06T05:04:14.720Z,29.54
2017-05-06T05:06:47.584Z,30.68
2017-05-06T05:09:19.755Z,25.74
2017-05-06T05:11:52.923Z,27.44
2017-05-06T05:14:25.094Z,27.90
2017-05-06T05:16:56.669Z,31.60
2017-05-06T05:19:27.539Z,30.92
2017-05-06T05:22:00.198Z,28.56
2017-05-06T05:24:32.869Z,30.48
2017-05-06T05:27:04.120Z,32.16
2017-05-06T05:29:35.657Z,32.08
2017-05-06T05:32:09.056Z,30.40
2017-05-06T05:34:42.226Z,33.20
2017-05-06T05:37:13.631Z,32.28
2017-05-06T05:39:45.538Z,31.68
2017-05-06T05:42:17.511Z,28.52
2017-05-06T05:44:49.053Z,33.66
2017-05-06T05:47:21.302Z,33.52
2017-05-06T05:49:54.388Z,34.78
2017-05-06T05:52:26.499Z,33.10
2017-05-06T05:54:57.347Z,34.14
2017-05-06T05:57:28.184Z,33.72
2017-05-06T05:59:58.979Z,31.22
2017-05-06T06:02:29.828Z,32.36
2017-05-06T06:05:00.695Z,32.76
2017-05-06T06:07:31.473Z,33.06
2017-05-06T06:10:02.339Z,32.40
2017-05-06T06:12:33.203Z,34.46
2017-05-06T06:15:04.043Z,32.30
2017-05-06T06:17:34.819Z,32.38
2017-05-06T06:20:05.773Z,33.48
2017-05-06T06:22:36.640Z,30.94
2017-05-06T06:25:07.457Z,28.88
2017-05-06T06:27:38.313Z,32.66
2017-05-06T06:30:09.156Z,31.20
2017-05-06T06:32:39.984Z,31.32
2017-05-06T06:35:10.836Z,30.00
2017-05-06T06:37:41.732Z,32.88
2017-05-06T06:40:12.558Z,33.22
2017-05-06T06:42:43.407Z,30.08
2017-05-06T06:45:14.034Z,30.52
2017-05-06T06:47:45.006Z,31.04
2017-05-06T06:50:15.786Z,30.38
2017-05-06T06:52:46.647Z,33.18
2017-05-06T06:55:17.504Z,32.32
2017-05-06T06:57:48.358Z,30.60
2017-05-06T07:00:19.171Z,32.86
2017-05-06T07:02:50.040Z,30.20
2017-05-06T07:05:20.815Z,29.78
2017-05-06T07:07:51.672Z,31.60
2017-05-06T07:10:22.571Z,31.10
2017-05-06T07:12:53.483Z,29.30
2017-05-06T07:15:24.506Z,32.66
2017-05-06T07:17:55.347Z,33.12
2017-05-06T07:20:26.201Z,34.64
2017-05-06T07:22:57.111Z,33.44
2017-05-06T07:25:27.910Z,32.64
2017-05-06T07:27:58.796Z,34.26
2017-05-06T07:30:29.592Z,34.00
2017-05-06T07:33:00.438Z,30.56
2017-05-06T07:35:31.300Z,36.42
2017-05-06T07:38:02.131Z,39.60
2017-05-06T07:40:32.988Z,30.54
2017-05-06T07:43:03.786Z,27.82
2017-05-06T07:45:34.679Z,34.18
2017-05-06T07:48:05.515Z,32.72
2017-05-06T07:50:36.429Z,32.74
2017-05-06T07:53:07.215Z,31.48
2017-05-06T07:55:38.127Z,27.66
2017-05-06T07:58:08.929Z,28.94
2017-05-06T08:00:39.787Z,31.70
2017-05-06T08:03:10.584Z,33.64
2017-05-06T08:05:41.419Z,30.90
2017-05-06T08:08:12.256Z,29.10
2017-05-06T08:10:43.227Z,32.70
2017-05-06T08:13:14.019Z,31.20
2017-05-06T08:15:44.915Z,36.96
2017-05-06T08:18:15.718Z,36.96
2017-05-06T08:20:48.169Z,34.46
2017-05-06T08:23:18.952Z,34.28
2017-05-06T08:25:49.815Z,36.48
2017-05-06T08:28:20.615Z,40.28
2017-05-06T08:30:51.688Z,40.48
2017-05-06T08:33:22.559Z,35.70
2017-05-06T08:35:53.459Z,36.18
2017-05-06T08:38:24.291Z,35.48
2017-05-06T08:40:55.732Z,37.42
2017-05-06T08:43:27.851Z,36.62
2017-05-06T08:45:58.681Z,36.48
2017-05-06T08:48:29.464Z,38.22
2017-05-06T08:51:00.332Z,38.36
2017-05-06T08:53:31.116Z,43.62
2017-05-06T08:56:02.097Z,38.66
2017-05-06T08:58:32.912Z,37.52
2017-05-06T09:01:03.752Z,33.58
2017-05-06T09:03:34.552Z,39.64
2017-05-06T09:06:05.439Z,37.68
2017-05-06T09:08:36.276Z,40.56
2017-05-06T09:11:07.149Z,40.62
2017-05-06T09:13:37.924Z,39.80
2017-05-06T09:16:08.763Z,36.36
2017-05-06T09:18:39.539Z,36.92
2017-05-06T09:21:10.375Z,38.84
2017-05-06T09:23:41.188Z,36.88
2017-05-06T09:26:12.051Z,41.62
2017-05-06T09:28:42.824Z,40.12
2017-05-06T09:31:13.669Z,39.14
2017-05-06T09:33:44.516Z,40.30
2017-05-06T09:36:15.284Z,35.82
2017-05-06T09:38:46.124Z,36.40
2017-05-06T09:41:16.906Z,39.58
2017-05-06T09:43:47.831Z,38.08
2017-05-06T09:46:18.700Z,41.40
2017-05-06T09:48:49.558Z,41.48
2017-05-06T09:51:20.361Z,36.68
2017-05-06T09:53:51.233Z,41.66
2017-05-06T09:56:22.114Z,38.24
2017-05-06T09:58:53.048Z,34.96
2017-05-06T10:01:23.870Z,42.56
2017-05-06T10:03:55.676Z,37.38
2017-05-06T10:06:26.476Z,39.46
2017-05-06T10:08:57.300Z,36.58
2017-05-06T10:11:28.124Z,39.46
2017-05-06T10:13:59.349Z,38.66
2017-05-06T10:16:30.183Z,37.28
2017-05-06T10:19:01.046Z,39.96
2017-05-06T10:21:31.940Z,38.60
2017-05-06T10:24:02.724Z,37.80
2017-05-06T10:26:33.572Z,39.00
2017-05-06T10:29:04.363Z,37.60
2017-05-06T10:31:35.237Z,40.62
2017-05-06T10:34:06.139Z,38.60
2017-05-06T10:36:37.036Z,52.42
2017-05-06T10:39:07.887Z,45.98
2017-05-06T10:41:38.692Z,38.94
2017-05-06T10:44:09.531Z,35.28
2017-05-06T10:46:40.332Z,41.56
2017-05-06T10:49:11.187Z,39.22
2017-05-06T10:51:42.020Z,41.08
2017-05-06T10:54:12.848Z,39.10
2017-05-06T10:56:43.772Z,38.60
2017-05-06T10:59:14.552Z,40.38
2017-05-06T11:01:45.419Z,41.18
2017-05-06T11:04:16.211Z,39.20
2017-05-06T11:06:47.036Z,37.54
2017-05-06T11:09:17.849Z,39.08
2017-05-06T11:11:48.687Z,42.90
2017-05-06T11:14:19.463Z,41.58
2017-05-06T11:16:50.358Z,40.14
2017-05-06T11:19:21.146Z,42.36
2017-05-06T11:21:52.076Z,39.66
2017-05-06T11:24:22.856Z,39.94
2017-05-06T11:26:53.813Z,37.96
2017-05-06T11:29:24.653Z,38.80
2017-05-06T11:31:55.485Z,34.86
2017-05-06T11:34:26.303Z,35.08
2017-05-06T11:36:56.812Z,37.86
2017-05-06T11:39:27.600Z,36.70
2017-05-06T11:41:58.455Z,36.40
2017-05-06T11:44:29.363Z,33.64
2017-05-06T11:47:00.260Z,35.26
2017-05-06T11:49:31.063Z,33.76
2017-05-06T11:52:01.924Z,32.20
2017-05-06T11:54:32.733Z,31.62
2017-05-06T11:57:03.639Z,33.26
2017-05-06T11:59:34.466Z,31.76
2017-05-06T12:02:05.342Z,30.88
2017-05-06T12:04:36.154Z,30.06
2017-05-06T12:07:07.025Z,32.42
2017-05-06T12:09:37.675Z,33.08
2017-05-06T12:12:08.544Z,32.12
2017-05-06T12:14:39.356Z,31.80
2017-05-06T12:17:10.247Z,27.56
2017-05-06T12:19:41.072Z,29.04
2017-05-06T12:22:11.920Z,29.22
2017-05-06T12:24:42.730Z,27.68
2017-05-06T12:27:14.339Z,26.00
2017-05-06T12:29:45.186Z,27.34
2017-05-06T12:32:16.042Z,24.84
2017-05-06T12:34:46.852Z,26.86
2017-05-06T12:37:17.723Z,27.04
2017-05-06T12:39:48.531Z,27.26
2017-05-06T12:42:19.355Z,29.10
2017-05-06T12:44:50.152Z,26.82
2017-05-06T12:47:21.052Z,30.36
2017-05-06T12:49:51.848Z,31.78
2017-05-06T12:52:22.703Z,32.34
2017-05-06T12:54:53.489Z,31.10
2017-05-06T12:57:24.402Z,31.20
2017-05-06T12:59:55.254Z,28.34
2017-05-06T13:02:26.110Z,31.18
2017-05-06T13:04:56.892Z,30.54
2017-05-06T13:07:27.863Z,31.86
2017-05-06T13:09:58.644Z,30.38
2017-05-06T13:12:29.470Z,29.32
2017-05-06T13:15:00.262Z,29.74
2017-05-06T13:17:31.103Z,31.34
2017-05-06T13:20:01.897Z,30.66
2017-05-06T13:22:32.742Z,30.74
2017-05-06T13:25:03.572Z,28.76
2017-05-06T13:27:34.420Z,30.18
2017-05-06T13:30:05.195Z,29.28
2017-05-06T13:32:36.025Z,28.38
2017-05-06T13:35:06.840Z,27.16
2017-05-06T13:37:37.748Z,26.80
2017-05-06T13:40:08.563Z,27.66
2017-05-06T13:42:39.395Z,26.12
2017-05-06T13:45:10.165Z,25.34
2017-05-06T13:47:41.000Z,24.82
2017-05-06T13:50:11.792Z,25.12
2017-05-06T13:52:42.620Z,30.86
2017-05-06T13:55:13.493Z,30.88
2017-05-06T13:57:44.402Z,30.36
2017-05-06T14:00:15.281Z,28.82
2017-05-06T14:02:46.702Z,28.12
2017-05-06T14:05:17.558Z,31.26
2017-05-06T14:07:48.430Z,29.40
2017-05-06T14:10:19.402Z,25.62
2017-05-06T14:12:50.178Z,26.40
2017-05-06T14:15:21.744Z,26.96
2017-05-06T14:17:52.522Z,31.26
2017-05-06T14:20:23.457Z,28.94
2017-05-06T14:22:54.265Z,26.16
2017-05-06T14:25:25.171Z,26.10
2017-05-06T14:27:55.967Z,24.58
2017-05-06T14:30:26.812Z,25.26
2017-05-06T14:32:57.597Z,24.16
2017-05-06T14:35:28.422Z,26.10
2017-05-06T14:37:59.203Z,26.46
2017-05-06T14:40:30.119Z,26.96
2017-05-06T14:43:00.955Z,26.24
2017-05-06T14:45:31.799Z,24.20
2017-05-06T14:48:02.584Z,24.54
2017-05-06T14:50:33.427Z,23.26
2017-05-06T14:53:04.259Z,23.04
2017-05-06T14:55:35.104Z,23.30
2017-05-06T14:58:05.694Z,23.40
2017-05-06T15:00:36.150Z,26.06
2017-05-06T15:03:06.961Z,22.40
2017-05-06T15:05:37.809Z,23.90
2017-05-06T15:08:08.615Z,23.14
2017-05-06T15:10:39.479Z,22.36
2017-05-06T15:13:10.268Z,22.10
2017-05-06T15:15:41.123Z,22.10
2017-05-06T15:18:11.898Z,21.94
2017-05-06T15:20:42.752Z,22.14
2017-05-06T15:23:13.597Z,21.88
2017-05-06T15:25:44.416Z,22.12
2017-05-06T15:28:15.252Z,23.20
2017-05-06T15:30:46.079Z,21.54
2017-05-06T15:33:16.915Z,22.80
2017-05-06T15:35:47.707Z,23.20
2017-05-06T15:38:18.601Z,19.64
2017-05-06T15:40:49.441Z,21.42
2017-05-06T15:43:20.254Z,20.72
2017-05-06T15:45:51.119Z,19.74
2017-05-06T15:48:21.908Z,19.46
2017-05-06T15:50:52.790Z,20.94
2017-05-06T15:53:23.756Z,19.70
2017-05-06T15:55:54.728Z,20.32
2017-05-06T15:58:25.696Z,19.18
2017-05-06T16:00:56.556Z,19.08
2017-05-06T16:03:27.327Z,19.98
2017-05-06T16:05:58.181Z,21.40
2017-05-06T16:08:28.970Z,21.16
2017-05-06T16:10:59.825Z,20.94
2017-05-06T16:13:30.596Z,20.38
2017-05-06T16:16:01.427Z,21.06
2017-05-06T16:18:32.306Z,21.02
2017-05-06T16:21:03.083Z,20.42
2017-05-06T16:23:33.911Z,20.62
2017-05-06T16:26:04.694Z,20.00
2017-05-06T16:28:35.531Z,19.74
2017-05-06T16:31:06.407Z,18.98
2017-05-06T16:33:37.259Z,21.44
2017-05-06T16:36:08.028Z,22.34
2017-05-06T16:38:38.876Z,22.42
2017-05-06T16:41:09.662Z,20.18
2017-05-06T16:43:40.885Z,21.02
2017-05-06T16:46:14.194Z,22.46
2017-05-06T16:48:46.282Z,20.60
2017-05-06T16:51:17.537Z,21.40
2017-05-06T16:53:49.518Z,19.56
2017-05-06T16:56:21.164Z,22.32
2017-05-06T16:58:53.875Z,22.00
2017-05-06T17:01:25.927Z,20.78
2017-05-06T17:03:56.815Z,22.32
2017-05-06T17:06:27.602Z,22.46
2017-05-06T17:08:58.506Z,21.92
2017-05-06T17:11:29.295Z,21.18
2017-05-06T17:14:00.136Z,21.50
2017-05-06T17:16:30.975Z,22.54
2017-05-06T17:19:01.818Z,20.16
2017-05-06T17:21:33.047Z,21.20
2017-05-06T17:24:04.703Z,20.50
2017-05-06T17:26:35.562Z,19.30
2017-05-06T17:29:07.961Z,20.26
2017-05-06T17:31:40.738Z,19.98
2017-05-06T17:34:12.613Z,20.68
2017-05-06T17:36:44.480Z,20.30
2017-05-06T17:39:15.901Z,21.00
2017-05-06T17:41:49.149Z,20.58
2017-05-06T17:44:22.079Z,21.42
2017-05-06T17:46:54.574Z,21.18
2017-05-06T17:49:25.869Z,22.46
2017-05-06T17:51:58.868Z,20.20
2017-05-06T17:54:34.393Z,21.96
2017-05-06T17:57:08.938Z,21.94
2017-05-06T17:59:41.290Z,20.96
2017-05-06T18:02:13.044Z,20.98
2017-05-06T18:04:43.893Z,20.52
2017-05-06T18:07:14.711Z,19.94
2017-05-06T18:09:45.567Z,19.10
2017-05-06T18:12:16.371Z,21.84
2017-05-06T18:14:47.320Z,20.72
2017-05-06T18:17:18.142Z,20.66
2017-05-06T18:19:49.824Z,22.34
2017-05-06T18:22:20.605Z,21.08
2017-05-06T18:24:51.490Z,22.74
2017-05-06T18:27:22.363Z,22.78
2017-05-06T18:29:53.338Z,22.86
2017-05-06T18:32:24.152Z,22.28
2017-05-06T18:34:54.996Z,21.88
2017-05-06T18:37:25.834Z,21.96
2017-05-06T18:39:56.767Z,23.82
2017-05-06T18:42:28.144Z,22.92
2017-05-06T18:44:59.967Z,23.82
2017-05-06T18:47:30.801Z,24.20
2017-05-06T18:50:01.719Z,24.10
2017-05-06T18:52:34.636Z,23.58
2017-05-06T18:55:05.805Z,23.76
2017-05-06T18:57:37.633Z,25.36
2017-05-06T19:00:08.532Z,25.02
2017-05-06T19:02:41.949Z,23.60
2017-05-06T19:05:13.103Z,25.52
2017-05-06T19:07:44.019Z,24.68
2017-05-06T19:10:14.828Z,24.64
2017-05-06T19:12:48.666Z,24.88
2017-05-06T19:15:21.629Z,24.68
2017-05-06T19:17:52.715Z,24.02
2017-05-06T19:20:23.574Z,23.94
2017-05-06T19:22:54.739Z,24.98
2017-05-06T19:25:25.840Z,26.94
2017-05-06T19:27:57.063Z,27.26
2017-05-06T19:30:28.221Z,25.22
2017-05-06T19:32:59.566Z,28.14
2017-05-06T19:35:30.653Z,27.70
2017-05-06T19:38:01.869Z,26.20
2017-05-06T19:40:32.935Z,26.18
2017-05-06T19:43:04.165Z,27.10
2017-05-06T19:45:35.190Z,27.72
2017-05-06T19:48:06.144Z,27.94
2017-05-06T19:50:37.231Z,30.60
2017-05-06T19:53:08.154Z,29.34
2017-05-06T19:55:39.335Z,28.78
2017-05-06T19:58:10.247Z,28.82
2017-05-06T20:00:41.332Z,26.80
2017-05-06T20:03:12.364Z,28.64
2017-05-06T20:05:43.204Z,29.14
2017-05-06T20:08:14.336Z,29.20
2017-05-06T20:10:45.519Z,28.08
2017-05-06T20:13:16.389Z,28.64
2017-05-06T20:15:47.644Z,28.82
2017-05-06T20:18:18.597Z,27.98
2017-05-06T20:20:49.652Z,27.26
2017-05-06T20:23:20.826Z,27.70
2017-05-06T20:25:51.852Z,27.78
2017-05-06T20:28:22.913Z,28.62
2017-05-06T20:30:54.043Z,28.60
2017-05-06T20:33:25.001Z,27.78
2017-05-06T20:35:56.219Z,26.84
2017-05-06T20:38:27.195Z,24.80
2017-05-06T20:40:58.280Z,25.72
2017-05-06T20:43:29.421Z,25.62
2017-05-06T20:46:00.355Z,26.42
2017-05-06T20:48:31.197Z,24.40
2017-05-06T20:51:02.028Z,24.28
2017-05-06T20:53:32.885Z,25.32
2017-05-06T20:56:03.673Z,22.50
2017-05-06T20:58:34.523Z,24.36
2017-05-06T21:01:05.405Z,25.12
2017-05-06T21:03:36.268Z,25.22
2017-05-06T21:06:07.101Z,27.58
2017-05-06T21:08:37.961Z,23.42
2017-05-06T21:11:08.743Z,25.48
2017-05-06T21:13:39.571Z,25.90
2017-05-06T21:16:10.347Z,24.80
2017-05-06T21:18:41.219Z,25.46
2017-05-06T21:21:12.006Z,22.66
2017-05-06T21:23:42.860Z,25.36
2017-05-06T21:26:13.639Z,24.06
2017-05-06T21:28:44.587Z,24.04
2017-05-06T21:31:15.406Z,25.76
2017-05-06T21:33:46.260Z,24.34
2017-05-06T21:36:17.057Z,24.34
2017-05-06T21:38:47.900Z,23.26
2017-05-06T21:41:18.696Z,23.40
2017-05-06T21:43:49.553Z,23.22
2017-05-06T21:46:20.416Z,25.38
2017-05-06T21:48:51.199Z,25.68
2017-05-06T21:51:22.046Z,21.94
2017-05-06T21:53:52.635Z,22.86
2017-05-06T21:56:23.491Z,23.34
2017-05-06T21:58:54.351Z,24.24
2017-05-06T22:01:25.287Z,24.28
2017-05-06T22:03:56.168Z,23.44
2017-05-06T22:06:26.959Z,23.76
2017-05-06T22:08:57.907Z,21.82
2017-05-06T22:11:28.684Z,22.72
2017-05-06T22:13:59.581Z,22.70
2017-05-06T22:16:30.364Z,22.92
2017-05-06T22:19:01.204Z,23.40
2017-05-06T22:21:31.984Z,22.02
2017-05-06T22:24:02.837Z,23.74
2017-05-06T22:26:33.650Z,22.62
2017-05-06T22:29:04.490Z,22.16
2017-05-06T22:31:35.104Z,22.70
2017-05-06T22:34:05.944Z,22.96
2017-05-06T22:36:36.821Z,22.06
2017-05-06T22:39:07.715Z,23.02
2017-05-06T22:41:38.525Z,23.26
2017-05-06T22:44:09.369Z,22.34
2017-05-06T22:46:40.184Z,22.96
2017-05-06T22:49:11.073Z,22.52
2017-05-06T22:51:42.560Z,24.02
2017-05-06T22:54:13.488Z,23.32
2017-05-06T22:56:44.348Z,22.90
2017-05-06T22:59:15.135Z,22.62
2017-05-06T23:01:46.319Z,24.88
2017-05-06T23:04:17.127Z,23.16
2017-05-06T23:06:48.015Z,22.42
2017-05-06T23:09:18.790Z,22.74
2017-05-06T23:11:49.672Z,21.70
2017-05-06T23:14:20.463Z,20.88
2017-05-06T23:16:51.319Z,21.88
2017-05-06T23:19:22.107Z,21.42
2017-05-06T23:21:52.976Z,23.08
2017-05-06T23:24:23.824Z,21.90
2017-05-06T23:26:54.737Z,21.18
2017-05-06T23:29:25.635Z,21.16
2017-05-06T23:31:56.522Z,20.82
2017-05-06T23:34:27.431Z,22.06
2017-05-06T23:36:58.271Z,22.50
2017-05-06T23:39:29.056Z,19.32
2017-05-06T23:41:59.915Z,19.50
2017-05-06T23:44:30.719Z,20.78
2017-05-06T23:47:01.582Z,19.46
2017-05-06T23:49:32.507Z,21.86
2017-05-06T23:52:03.288Z,19.46
2017-05-06T23:54:35.022Z,19.90
2017-05-06T23:57:05.809Z,20.54
2017-05-06T23:59:37.572Z,20.74
